Time;durP1;ratioP1;P1;durP2;ratioP2;P2;SDS_P1;SDS_P2;PMS_P1;PMS_P2;Temp;Humidity;BMP_temperature;BMP_pressure;BME280_temperature;BME280_humidity;BME280_pressure;Samples;Min_cycle;Max_cycle;Signal;HPM_P1;HPM_P2
2021/12/30 00:01:56;;;;;;;20.73;13.13;;;0.50;99.90;-0.70;99467;;;;572366;246;24103;-75
2021/12/30 00:04:23;;;;;;;27.70;15.63;;;0.60;99.90;-0.60;99468;;;;572884;246;24087;-75
2021/12/30 00:06:54;;;;;;;26.07;14.17;;;0.60;99.90;-0.70;99463;;;;572841;242;25127;-77
2021/12/30 00:09:20;;;;;;;24.53;14.17;;;0.50;99.90;-0.70;99463;;;;570180;246;24106;-75
2021/12/30 00:11:50;;;;;;;34.50;18.37;;;0.50;99.90;-0.60;99464;;;;572514;246;24076;-74
2021/12/30 00:14:15;;;;;;;41.40;20.87;;;0.60;99.90;-0.70;99470;;;;580323;242;24091;-76
2021/12/30 00:16:43;;;;;;;34.67;17.40;;;0.50;99.90;-0.70;99477;;;;588475;239;24042;-77
2021/12/30 00:19:12;;;;;;;21.47;13.10;;;0.50;99.90;-0.70;99474;;;;589850;239;24108;-75
2021/12/30 00:21:38;;;;;;;19.87;10.93;;;0.50;99.90;-0.70;99467;;;;589577;239;24092;-75
2021/12/30 00:24:11;;;;;;;27.37;13.80;;;0.50;99.90;-0.70;99461;;;;589761;239;24082;-76
2021/12/30 00:26:36;;;;;;;35.37;18.63;;;0.50;99.90;-0.70;99451;;;;590904;239;24099;-75
2021/12/30 00:29:04;;;;;;;33.17;17.33;;;0.50;99.90;-0.70;99457;;;;590740;239;24031;-79
2021/12/30 00:31:32;;;;;;;20.43;11.33;;;0.50;99.90;-0.70;99457;;;;590647;239;24020;-75
2021/12/30 00:33:59;;;;;;;49.03;22.57;;;0.60;99.90;-0.70;99448;;;;590445;239;24081;-76
2021/12/30 00:36:27;;;;;;;56.27;24.00;;;0.60;99.90;-0.60;99454;;;;590782;239;24040;-79
2021/12/30 00:38:55;;;;;;;62.43;24.83;;;0.50;99.90;-0.70;99461;;;;590943;239;24042;-79
2021/12/30 00:41:24;;;;;;;35.33;17.67;;;0.50;99.90;-0.70;99470;;;;590685;239;24068;-74
2021/12/30 00:43:53;;;;;;;34.90;16.73;;;0.50;99.90;-0.70;99476;;;;590456;239;24078;-73
2021/12/30 00:46:21;;;;;;;31.63;15.33;;;0.50;99.90;-0.70;99481;;;;590331;239;24017;-74
2021/12/30 00:48:48;;;;;;;26.97;13.97;;;0.50;99.90;-0.70;99481;;;;590293;239;24047;-75
2021/12/30 00:51:16;;;;;;;28.93;16.03;;;0.50;99.90;-0.70;99475;;;;590202;239;24084;-74
2021/12/30 00:53:44;;;;;;;23.27;12.93;;;0.50;99.90;-0.70;99479;;;;590302;239;24047;-75
2021/12/30 00:56:12;;;;;;;26.20;14.07;;;0.50;99.90;-0.70;99484;;;;590265;239;24099;-74
2021/12/30 00:58:41;;;;;;;29.17;14.73;;;0.60;99.90;-0.60;99492;;;;590214;239;24106;-74
2021/12/30 01:01:09;;;;;;;23.33;11.90;;;0.60;99.90;-0.60;99490;;;;590138;239;24026;-74
2021/12/30 01:03:37;;;;;;;19.60;12.60;;;0.60;99.90;-0.60;99499;;;;589938;239;24031;-74
2021/12/30 01:06:05;;;;;;;22.67;10.27;;;0.60;99.90;-0.60;99499;;;;589964;239;24010;-76
2021/12/30 01:08:32;;;;;;;25.80;14.13;;;0.60;99.90;-0.60;99508;;;;589649;239;24180;-74
2021/12/30 01:11:05;;;;;;;19.30;12.37;;;0.60;99.90;-0.60;99505;;;;589971;239;24014;-75
2021/12/30 01:13:30;;;;;;;30.10;13.10;;;0.60;99.90;-0.60;99502;;;;579404;244;24050;-74
2021/12/30 01:18:29;;;;;;;22.93;12.80;;;0.60;99.90;-0.60;99511;;;;579533;244;24111;-74
2021/12/30 01:20:52;;;;;;;22.20;11.73;;;0.70;99.90;-0.60;99511;;;;579327;244;24078;-75
2021/12/30 01:23:21;;;;;;;14.80;12.13;;;0.60;99.90;-0.60;99505;;;;579629;244;24069;-75
2021/12/30 01:25:49;;;;;;;23.63;13.10;;;0.60;99.90;-0.60;99495;;;;579487;244;24079;-75
2021/12/30 01:28:17;;;;;;;21.70;13.10;;;0.70;99.90;-0.60;99500;;;;579605;244;24055;-76
2021/12/30 01:30:48;;;;;;;27.40;14.90;;;0.70;99.90;-0.60;99494;;;;579528;244;24070;-77
2021/12/30 01:33:12;;;;;;;20.23;12.33;;;0.70;99.90;-0.60;99496;;;;579058;244;24133;-76
2021/12/30 01:35:40;;;;;;;21.37;12.27;;;0.70;99.90;-0.60;99492;;;;579557;244;24044;-74
2021/12/30 01:38:12;;;;;;;25.43;17.33;;;0.70;99.90;-0.50;99487;;;;581428;243;24059;-75
2021/12/30 01:40:38;;;;;;;30.23;14.87;;;0.70;99.90;-0.50;99481;;;;580864;243;24048;-75
2021/12/30 01:43:06;;;;;;;29.33;17.60;;;0.70;99.90;-0.50;99488;;;;580542;243;25083;-75
2021/12/30 01:45:33;;;;;;;32.87;14.60;;;0.70;99.90;-0.60;99484;;;;580581;243;24150;-75
2021/12/30 01:48:01;;;;;;;43.33;19.90;;;0.70;99.90;-0.50;99477;;;;580330;243;24036;-75
2021/12/30 01:50:29;;;;;;;45.03;22.87;;;0.70;99.90;-0.60;99482;;;;580429;243;24131;-75
2021/12/30 01:52:58;;;;;;;44.73;21.03;;;0.70;99.90;-0.60;99492;;;;580379;243;24139;-75
2021/12/30 01:55:29;;;;;;;30.17;17.40;;;0.70;99.90;-0.60;99491;;;;581183;242;24058;-75
2021/12/30 01:57:54;;;;;;;40.53;17.97;;;0.60;99.90;-0.60;99492;;;;583121;242;24086;-75
2021/12/30 02:00:22;;;;;;;23.70;13.77;;;0.60;99.90;-0.60;99486;;;;583287;242;24044;-75
2021/12/30 02:02:50;;;;;;;30.00;14.93;;;0.70;99.90;-0.60;99497;;;;583278;242;24035;-74
2021/12/30 02:05:17;;;;;;;32.57;17.67;;;0.70;99.90;-0.60;99506;;;;583267;242;24032;-75
2021/12/30 02:07:45;;;;;;;23.17;11.83;;;0.70;99.90;-0.50;99502;;;;583031;242;24091;-76
2021/12/30 02:10:14;;;;;;;23.17;13.77;;;0.70;99.90;-0.50;99509;;;;592291;242;24086;-75
2021/12/30 02:12:46;;;;;;;30.00;16.17;;;0.70;99.90;-0.50;99518;;;;582986;242;24086;-75
2021/12/30 02:15:11;;;;;;;27.40;15.50;;;0.70;99.90;-0.50;99513;;;;582701;242;24146;-75
2021/12/30 02:17:39;;;;;;;25.60;15.40;;;0.70;99.90;-0.50;99511;;;;591589;242;24070;-75
2021/12/30 02:20:06;;;;;;;34.37;17.60;;;0.70;99.90;-0.50;99525;;;;582637;242;24055;-75
2021/12/30 02:22:34;;;;;;;38.27;19.70;;;0.80;99.90;-0.50;99519;;;;582456;242;24075;-75
2021/12/30 02:25:04;;;;;;;36.20;16.10;;;0.80;99.90;-0.50;99523;;;;582817;242;24050;-75
2021/12/30 02:27:31;;;;;;;31.70;13.60;;;0.80;99.90;-0.50;99521;;;;582773;242;24060;-75
2021/12/30 02:30:00;;;;;;;24.00;14.57;;;0.80;99.90;-0.50;99511;;;;582637;242;24083;-75
2021/12/30 02:32:28;;;;;;;34.30;19.10;;;0.80;99.90;-0.50;99510;;;;584933;239;24143;-75
2021/12/30 02:34:56;;;;;;;24.43;13.37;;;0.80;99.90;-0.50;99508;;;;586308;242;24138;-75
2021/12/30 02:37:23;;;;;;;26.53;12.87;;;0.80;99.90;-0.50;99494;;;;582804;242;24098;-76
2021/12/30 02:39:52;;;;;;;29.40;15.27;;;0.80;99.90;-0.50;99494;;;;583137;242;24041;-75
2021/12/30 02:42:25;;;;;;;32.07;16.23;;;0.80;99.90;-0.50;99495;;;;583330;242;24066;-76
2021/12/30 02:44:53;;;;;;;18.17;10.83;;;0.80;99.90;-0.40;99503;;;;583398;242;24047;-76
2021/12/30 02:47:21;;;;;;;28.50;12.73;;;0.80;99.90;-0.50;99504;;;;583453;240;24063;-76
2021/12/30 02:49:48;;;;;;;28.30;13.43;;;0.80;99.90;-0.40;99506;;;;584842;241;24034;-76
2021/12/30 02:52:16;;;;;;;25.07;13.30;;;0.80;99.90;-0.40;99511;;;;584561;242;24087;-77
2021/12/30 02:54:44;;;;;;;22.63;12.83;;;0.80;99.90;-0.40;99494;;;;593315;240;24098;-77
2021/12/30 02:57:12;;;;;;;24.20;13.70;;;0.80;99.90;-0.50;99496;;;;593235;240;24070;-76
2021/12/30 02:59:40;;;;;;;35.43;20.07;;;0.90;99.90;-0.50;99490;;;;583889;242;24144;-76
2021/12/30 03:02:08;;;;;;;22.10;13.10;;;0.80;99.90;-0.50;99499;;;;583860;242;24099;-77
2021/12/30 03:04:36;;;;;;;54.37;23.80;;;0.80;99.90;-0.50;99492;;;;583995;242;24063;-77
2021/12/30 03:07:04;;;;;;;35.10;16.67;;;0.80;99.90;-0.50;99496;;;;583746;242;24100;-76
2021/12/30 03:09:35;;;;;;;43.13;20.00;;;0.80;99.90;-0.50;99506;;;;583641;242;24109;-76
2021/12/30 03:12:00;;;;;;;25.07;13.40;;;0.80;99.90;-0.50;99508;;;;583190;242;24203;-75
2021/12/30 03:14:29;;;;;;;16.73;10.17;;;0.80;99.90;-0.50;99507;;;;583765;240;24012;-75
2021/12/30 03:16:55;;;;;;;21.37;12.13;;;0.80;99.90;-0.50;99504;;;;588475;240;24022;-75
2021/12/30 03:19:24;;;;;;;25.77;14.70;;;0.80;99.90;-0.40;99518;;;;588239;240;24036;-75
2021/12/30 03:21:55;;;;;;;25.13;15.43;;;0.80;99.90;-0.40;99518;;;;588098;240;24035;-74
2021/12/30 03:24:21;;;;;;;22.30;12.93;;;0.80;99.90;-0.40;99534;;;;587824;240;24081;-74
2021/12/30 03:26:49;;;;;;;26.07;16.60;;;0.90;99.90;-0.40;99536;;;;587935;240;24084;-75
2021/12/30 03:29:17;;;;;;;27.40;14.67;;;0.90;99.90;-0.40;99521;;;;587710;240;24032;-74
2021/12/30 03:31:48;;;;;;;30.30;14.40;;;0.90;99.90;-0.40;99524;;;;587911;240;24120;-74
2021/12/30 03:34:12;;;;;;;29.47;15.20;;;0.90;99.90;-0.40;99523;;;;592683;240;24047;-74
2021/12/30 03:36:41;;;;;;;39.93;17.97;;;0.90;99.90;-0.40;99517;;;;587655;240;24040;-75
2021/12/30 03:39:11;;;;;;;45.67;21.10;;;0.90;99.90;-0.40;99510;;;;588234;240;24045;-75
2021/12/30 03:41:38;;;;;;;32.93;17.43;;;0.90;99.90;-0.40;99510;;;;588261;240;24025;-76
2021/12/30 03:44:06;;;;;;;24.40;13.67;;;0.90;99.90;-0.40;99511;;;;588313;240;24030;-74
2021/12/30 03:46:33;;;;;;;19.07;10.63;;;0.90;99.90;-0.40;99511;;;;588345;240;24020;-75
2021/12/30 03:49:04;;;;;;;29.20;13.77;;;0.90;99.90;-0.40;99514;;;;588398;240;24042;-74
2021/12/30 03:51:37;;;;;;;21.00;12.37;;;0.90;99.90;-0.40;99510;;;;588186;240;24037;-75
2021/12/30 03:53:58;;;;;;;23.40;12.50;;;0.90;99.90;-0.30;99511;;;;586543;243;24043;-75
2021/12/30 03:56:26;;;;;;;20.80;13.03;;;0.90;99.90;-0.30;99513;;;;574619;246;24077;-77
2021/12/30 03:58:54;;;;;;;25.10;12.60;;;1.00;99.90;-0.30;99516;;;;574637;244;24079;-74
2021/12/30 04:01:25;;;;;;;14.00;10.00;;;1.00;99.90;-0.30;99526;;;;575548;245;24038;-76
2021/12/30 04:03:52;;;;;;;58.87;28.60;;;1.00;99.90;-0.30;99531;;;;570095;246;35220;-75
2021/12/30 04:06:18;;;;;;;59.50;24.63;;;1.10;99.90;-0.30;99535;;;;574667;246;24089;-75
2021/12/30 04:08:46;;;;;;;27.27;15.23;;;1.10;99.90;-0.20;99522;;;;574219;244;24085;-74
2021/12/30 04:11:15;;;;;;;25.93;13.00;;;1.10;99.90;-0.20;99524;;;;574510;246;24080;-75
2021/12/30 04:13:43;;;;;;;21.70;10.40;;;1.10;99.90;-0.20;99528;;;;575517;246;24130;-76
2021/12/30 04:16:11;;;;;;;58.10;29.55;;;1.10;99.90;-0.20;99542;;;;574888;246;35137;-77
2021/12/30 04:18:39;;;;;;;39.87;21.33;;;1.10;99.90;-0.20;99531;;;;584214;245;24118;-76
2021/12/30 04:21:07;;;;;;;30.30;13.33;;;1.20;99.90;-0.20;99523;;;;574822;246;24070;-76
2021/12/30 04:23:34;;;;;;;25.90;12.97;;;1.20;99.90;-0.20;99519;;;;574786;246;24062;-74
2021/12/30 04:26:02;;;;;;;33.10;15.10;;;1.20;99.90;-0.20;99517;;;;574863;246;24050;-76
2021/12/30 04:28:30;;;;;;;20.23;9.10;;;1.20;99.90;-0.20;99530;;;;574685;246;24060;-76
2021/12/30 04:30:59;;;;;;;22.87;13.20;;;1.20;99.90;-0.20;99537;;;;574128;244;24075;-76
2021/12/30 04:33:28;;;;;;;25.60;11.87;;;1.20;99.90;-0.20;99533;;;;574038;246;24093;-75
2021/12/30 04:35:56;;;;;;;24.43;11.20;;;1.10;99.90;-0.20;99537;;;;573551;246;24140;-75
2021/12/30 04:38:26;;;;;;;18.13;9.97;;;1.20;99.90;-0.20;99552;;;;573468;246;24080;-74
2021/12/30 04:40:57;;;;;;;14.87;8.43;;;1.20;99.90;-0.20;99539;;;;573931;246;24082;-75
2021/12/30 04:43:22;;;;;;;20.73;9.47;;;1.20;99.90;-0.20;99540;;;;573885;246;24048;-74
2021/12/30 04:45:50;;;;;;;19.47;7.87;;;1.20;99.90;-0.20;99544;;;;573971;244;24048;-74
2021/12/30 04:48:18;;;;;;;14.70;10.30;;;1.20;99.90;-0.20;99547;;;;574045;246;24041;-75
2021/12/30 04:50:47;;;;;;;17.07;9.43;;;1.20;99.90;-0.10;99539;;;;574063;246;24106;-74
2021/12/30 04:53:19;;;;;;;16.93;12.10;;;1.20;99.90;-0.10;99525;;;;570711;246;24121;-75
2021/12/30 04:55:43;;;;;;;30.20;17.43;;;1.20;99.90;-0.10;99525;;;;573828;246;24061;-75
2021/12/30 04:58:11;;;;;;;17.13;9.93;;;1.20;99.90;-0.10;99524;;;;573968;246;24056;-76
2021/12/30 05:00:39;;;;;;;32.50;16.97;;;1.20;99.90;-0.10;99535;;;;573900;246;24048;-74
2021/12/30 05:03:11;;;;;;;11.20;6.97;;;1.20;99.90;-0.10;99521;;;;573938;246;24103;-75
2021/12/30 05:05:37;;;;;;;16.03;8.43;;;1.20;99.90;-0.10;99517;;;;573813;245;24077;-74
2021/12/30 05:08:05;;;;;;;17.73;10.03;;;1.20;99.90;-0.10;99529;;;;573253;246;24189;-74
2021/12/30 05:10:33;;;;;;;46.78;25.30;;;1.20;99.90;-0.10;99530;;;;563787;243;35158;-75
2021/12/30 05:13:01;;;;;;;41.53;19.97;;;1.30;99.90;-0.10;99527;;;;575385;245;24054;-76
2021/12/30 05:15:29;;;;;;;25.73;13.40;;;1.30;99.90;-0.10;99524;;;;575140;243;24077;-76
2021/12/30 05:17:57;;;;;;;31.27;13.80;;;1.30;99.90;0.00;99511;;;;574968;246;24107;-76
2021/12/30 05:20:25;;;;;;;20.43;10.23;;;1.30;99.90;0.00;99516;;;;574976;243;24112;-76
2021/12/30 05:22:53;;;;;;;40.33;18.30;;;1.30;99.90;0.00;99519;;;;578088;243;24139;-75
2021/12/30 05:25:21;;;;;;;25.67;12.17;;;1.30;99.90;-0.10;99510;;;;580250;243;24092;-76
2021/12/30 05:27:52;;;;;;;22.13;12.60;;;1.30;99.90;-0.10;99511;;;;580266;243;24042;-77
2021/12/30 05:30:17;;;;;;;18.87;8.37;;;1.30;99.90;-0.10;99502;;;;579785;243;24106;-75
2021/12/30 05:32:45;;;;;;;26.97;11.80;;;1.20;99.90;-0.10;99508;;;;579766;243;24069;-76
2021/12/30 05:35:13;;;;;;;30.03;12.73;;;1.30;99.90;0.00;99494;;;;580016;243;24076;-76
2021/12/30 05:37:41;;;;;;;37.00;17.63;;;1.30;99.90;-0.10;99513;;;;580289;243;24059;-74
2021/12/30 05:40:13;;;;;;;22.87;12.00;;;1.30;99.90;-0.10;99510;;;;580672;243;24077;-75
2021/12/30 05:42:40;;;;;;;25.20;12.60;;;1.20;99.90;-0.10;99520;;;;579808;243;24128;-75
2021/12/30 05:45:05;;;;;;;25.37;12.00;;;1.30;99.90;0.00;99511;;;;580215;243;24075;-78
2021/12/30 05:47:33;;;;;;;34.70;15.80;;;1.30;99.90;0.00;99512;;;;580291;244;24059;-76
2021/12/30 05:50:03;;;;;;;30.43;16.23;;;1.30;99.90;0.00;99506;;;;580153;244;24119;-77
2021/12/30 05:52:34;;;;;;;21.20;10.90;;;1.30;99.90;-0.10;99517;;;;583581;242;24070;-78
2021/12/30 05:54:59;;;;;;;22.87;11.97;;;1.30;99.90;0.00;99510;;;;583427;242;24055;-76
2021/12/30 05:57:30;;;;;;;23.83;13.83;;;1.30;99.90;-0.10;99515;;;;583758;242;24105;-75
2021/12/30 05:59:55;;;;;;;24.17;14.77;;;1.30;99.90;0.00;99518;;;;583515;239;24130;-75
2021/12/30 06:02:23;;;;;;;32.23;14.80;;;1.20;99.90;-0.10;99520;;;;582262;244;25098;-74
2021/12/30 06:04:51;;;;;;;39.23;19.70;;;1.30;99.90;-0.10;99527;;;;574957;246;24057;-77
2021/12/30 06:07:19;;;;;;;19.43;9.47;;;1.30;99.90;-0.10;99525;;;;574843;246;24113;-75
2021/12/30 06:09:50;;;;;;;29.23;14.63;;;1.20;99.90;0.00;99523;;;;574361;246;24067;-75
2021/12/30 06:12:19;;;;;;;27.37;15.53;;;1.20;99.90;0.00;99527;;;;574157;246;24052;-76
2021/12/30 06:14:43;;;;;;;24.00;13.63;;;1.20;99.90;0.00;99535;;;;572956;246;24062;-76
2021/12/30 06:17:13;;;;;;;29.60;16.90;;;1.30;99.90;0.00;99550;;;;574487;246;24092;-74
2021/12/30 06:19:39;;;;;;;15.90;7.13;;;1.30;99.90;0.00;99539;;;;574313;246;24063;-75
2021/12/30 06:22:07;;;;;;;22.87;13.40;;;1.30;99.90;0.00;99551;;;;574599;244;24042;-75
2021/12/30 06:24:38;;;;;;;18.13;10.17;;;1.30;99.90;0.00;99561;;;;576094;245;24164;-75
2021/12/30 06:27:03;;;;;;;26.03;12.63;;;1.40;99.90;0.00;99563;;;;574181;245;24072;-76
2021/12/30 06:29:31;;;;;;;13.20;8.33;;;1.40;99.90;0.10;99566;;;;575647;245;24059;-76
2021/12/30 06:31:59;;;;;;;20.43;10.80;;;1.40;99.90;0.10;99556;;;;580713;239;24121;-76
2021/12/30 06:34:28;;;;;;;25.07;15.17;;;1.40;99.90;0.10;99547;;;;586852;242;24114;-75
2021/12/30 06:36:56;;;;;;;16.80;8.70;;;1.50;99.90;0.10;99547;;;;584397;242;24006;-76
2021/12/30 06:39:25;;;;;;;21.03;13.00;;;1.50;99.90;0.10;99555;;;;584741;242;24129;-79
2021/12/30 06:41:52;;;;;;;27.60;14.07;;;1.40;99.90;0.10;99557;;;;584147;242;24057;-76
2021/12/30 06:44:20;;;;;;;26.57;15.63;;;1.50;99.90;0.10;99561;;;;583938;242;24057;-80
2021/12/30 06:46:53;;;;;;;14.83;8.43;;;1.50;99.90;0.20;99556;;;;583879;242;24086;-80
2021/12/30 06:49:17;;;;;;;19.97;12.83;;;1.60;99.90;0.20;99567;;;;583511;242;24051;-82
2021/12/30 06:51:45;;;;;;;7.70;6.03;;;1.50;99.90;0.10;99555;;;;583210;242;24043;-80
2021/12/30 06:54:13;;;;;;;7.30;5.60;;;1.50;99.90;0.00;99562;;;;582953;242;24056;-81
2021/12/30 06:56:41;;;;;;;8.40;5.57;;;1.50;99.90;0.00;99575;;;;582166;243;24057;-81
2021/12/30 06:59:09;;;;;;;16.00;10.70;;;1.50;99.90;0.00;99581;;;;579425;244;24097;-80
2021/12/30 07:01:36;;;;;;;17.17;9.67;;;1.50;99.90;0.00;99583;;;;584065;240;24032;-78
2021/12/30 07:04:04;;;;;;;11.17;7.93;;;1.50;99.90;0.00;99591;;;;587268;240;24028;-80
2021/12/30 07:06:32;;;;;;;14.30;10.07;;;1.50;99.90;0.10;99589;;;;586893;240;24074;-76
2021/12/30 07:09:00;;;;;;;12.57;8.60;;;1.60;99.90;0.00;99592;;;;587071;240;24045;-77
2021/12/30 07:11:28;;;;;;;11.37;5.73;;;1.50;99.90;0.00;99581;;;;587206;240;24043;-75
2021/12/30 07:13:56;;;;;;;9.00;6.20;;;1.60;99.90;0.10;99580;;;;587087;240;24035;-75
2021/12/30 07:16:24;;;;;;;16.00;10.20;;;1.60;99.90;0.10;99596;;;;587253;240;24025;-75
2021/12/30 07:18:52;;;;;;;18.50;11.40;;;1.60;99.90;0.10;99587;;;;587225;240;24076;-75
2021/12/30 07:21:20;;;;;;;12.17;8.07;;;1.60;99.90;0.10;99577;;;;586623;240;24088;-75
2021/12/30 07:23:48;;;;;;;14.40;6.43;;;1.60;99.90;0.10;99581;;;;586748;240;24036;-75
2021/12/30 07:26:16;;;;;;;12.23;7.20;;;1.60;99.90;0.10;99589;;;;587222;240;24131;-78
2021/12/30 07:28:44;;;;;;;16.93;7.13;;;1.60;99.90;0.10;99591;;;;587107;240;24123;-76
2021/12/30 07:31:12;;;;;;;11.23;6.73;;;1.70;99.90;0.20;99603;;;;586073;240;24234;-75
2021/12/30 07:33:40;;;;;;;11.07;8.00;;;1.70;99.90;0.20;99609;;;;579479;241;24077;-75
2021/12/30 07:36:08;;;;;;;17.20;9.80;;;1.70;99.90;0.20;99618;;;;581174;243;24076;-75
2021/12/30 07:38:36;;;;;;;11.13;7.30;;;1.70;99.90;0.20;99611;;;;580742;243;24070;-75
2021/12/30 07:41:04;;;;;;;8.73;5.67;;;1.70;99.90;0.20;99608;;;;580500;243;24072;-75
2021/12/30 07:43:32;;;;;;;11.63;6.67;;;1.70;99.90;0.20;99602;;;;579979;243;24069;-76
2021/12/30 07:46:00;;;;;;;25.40;11.77;;;1.80;99.90;0.20;99607;;;;579815;243;24088;-75
2021/12/30 07:48:27;;;;;;;14.53;8.27;;;1.80;99.90;0.30;99606;;;;579874;243;24061;-75
2021/12/30 07:50:55;;;;;;;18.47;10.30;;;1.80;99.90;0.30;99609;;;;579787;243;24045;-75
2021/12/30 07:53:24;;;;;;;15.83;10.43;;;1.80;99.90;0.30;99613;;;;579694;243;24105;-75
2021/12/30 07:55:52;;;;;;;18.40;9.07;;;1.80;99.90;0.30;99618;;;;579534;243;24054;-75
2021/12/30 07:58:20;;;;;;;22.47;10.30;;;1.80;99.90;0.30;99604;;;;579746;243;24085;-75
2021/12/30 08:00:48;;;;;;;15.70;10.17;;;1.80;99.90;0.30;99602;;;;577868;246;24074;-74
2021/12/30 08:03:16;;;;;;;14.73;8.77;;;1.80;99.90;0.40;99595;;;;574587;246;24111;-75
2021/12/30 08:05:44;;;;;;;14.30;8.40;;;1.90;99.90;0.40;99592;;;;578084;244;24071;-75
2021/12/30 08:08:11;;;;;;;22.20;12.40;;;1.90;99.90;0.40;99590;;;;574150;246;24084;-76
2021/12/30 08:10:40;;;;;;;23.33;12.20;;;1.90;99.90;0.40;99593;;;;574897;246;24059;-75
2021/12/30 08:13:08;;;;;;;26.73;12.97;;;1.90;99.90;0.50;99596;;;;578084;245;24060;-76
2021/12/30 08:15:39;;;;;;;26.53;11.37;;;2.00;99.90;0.60;99587;;;;574351;246;24060;-75
2021/12/30 08:18:04;;;;;;;23.87;13.00;;;2.10;99.90;0.60;99583;;;;572907;246;24068;-75
2021/12/30 08:20:32;;;;;;;21.20;11.47;;;2.20;99.90;0.60;99577;;;;578165;245;24070;-79
2021/12/30 08:23:00;;;;;;;24.37;11.67;;;2.10;99.90;0.70;99575;;;;574304;246;24084;-76
2021/12/30 08:25:28;;;;;;;25.83;11.77;;;2.20;99.90;0.80;99586;;;;574737;246;25182;-76
2021/12/30 08:27:56;;;;;;;27.10;13.43;;;2.30;99.90;0.70;99572;;;;577828;245;24064;-76
2021/12/30 08:30:24;;;;;;;21.93;11.10;;;2.30;99.90;0.80;99575;;;;574029;246;24071;-76
2021/12/30 08:32:52;;;;;;;30.87;13.73;;;2.30;99.90;0.80;99576;;;;574548;246;24069;-75
2021/12/30 08:35:22;;;;;;;19.40;11.03;;;2.40;99.90;0.90;99578;;;;577792;245;24057;-75
2021/12/30 08:37:50;;;;;;;28.47;12.37;;;2.40;99.90;1.00;99572;;;;573916;246;24107;-76
2021/12/30 08:40:18;;;;;;;25.37;14.00;;;2.50;99.90;1.00;99582;;;;574397;246;24054;-76
2021/12/30 08:42:46;;;;;;;25.37;14.07;;;2.60;99.90;1.10;99570;;;;578096;245;24071;-75
2021/12/30 08:45:15;;;;;;;21.77;12.07;;;2.80;99.90;1.30;99573;;;;574353;244;24057;-75
2021/12/30 08:47:43;;;;;;;29.90;13.47;;;2.80;99.90;1.30;99575;;;;572992;245;24073;-76
2021/12/30 08:50:14;;;;;;;23.13;12.67;;;2.90;99.90;1.40;99564;;;;579208;244;24106;-77
2021/12/30 08:52:39;;;;;;;34.43;16.63;;;2.90;99.90;1.40;99557;;;;578742;244;24087;-75
2021/12/30 08:55:10;;;;;;;35.00;16.83;;;3.00;99.90;1.40;99551;;;;575083;246;24080;-75
2021/12/30 08:57:37;;;;;;;35.27;17.77;;;3.00;99.90;1.50;99545;;;;575004;246;24235;-75
2021/12/30 09:00:03;;;;;;;31.60;15.23;;;3.10;99.90;1.80;99547;;;;578570;244;25116;-75
2021/12/30 09:02:31;;;;;;;39.40;17.73;;;3.30;99.90;1.70;99541;;;;574802;246;24098;-75
2021/12/30 09:04:59;;;;;;;36.90;16.23;;;3.30;99.90;1.70;99539;;;;575141;246;24041;-74
2021/12/30 09:07:27;;;;;;;35.73;18.10;;;3.40;99.90;1.90;99540;;;;578255;244;24106;-76
2021/12/30 09:09:55;;;;;;;29.27;14.63;;;3.50;99.90;2.00;99546;;;;574572;246;24062;-75
2021/12/30 09:12:24;;;;;;;33.73;15.50;;;3.60;99.90;2.00;99537;;;;575039;246;24066;-76
2021/12/30 09:14:51;;;;;;;40.47;16.90;;;3.70;99.90;2.00;99540;;;;578334;244;24050;-76
2021/12/30 09:17:20;;;;;;;39.03;17.60;;;3.70;99.90;2.00;99543;;;;574530;246;24186;-74
2021/12/30 09:19:48;;;;;;;37.93;20.07;;;3.60;99.90;2.10;99541;;;;575043;246;24054;-74
2021/12/30 09:22:16;;;;;;;34.00;17.83;;;3.70;99.90;2.00;99539;;;;578272;245;24046;-74
2021/12/30 09:24:44;;;;;;;39.77;19.23;;;3.70;99.90;1.80;99527;;;;573382;246;24080;-75
2021/12/30 09:27:12;;;;;;;42.07;18.30;;;3.60;99.90;1.70;99539;;;;572426;246;24111;-74
2021/12/30 09:29:40;;;;;;;36.67;16.27;;;3.50;99.90;1.60;99532;;;;572123;246;24098;-80
2021/12/30 09:32:07;;;;;;;39.67;18.77;;;3.40;99.90;1.70;99531;;;;572202;246;24082;-78
2021/12/30 09:34:36;;;;;;;40.77;19.50;;;3.40;99.90;1.70;99528;;;;580846;246;25130;-78
2021/12/30 09:37:08;;;;;;;33.20;17.90;;;3.30;99.90;1.80;99529;;;;572074;246;24126;-79
2021/12/30 09:39:32;;;;;;;32.07;15.80;;;3.30;99.90;1.80;99526;;;;572192;246;24126;-80
2021/12/30 09:42:00;;;;;;;46.23;21.63;;;3.40;99.90;1.80;99524;;;;572055;246;24150;-80
2021/12/30 09:44:28;;;;;;;42.13;20.73;;;3.40;99.90;1.70;99530;;;;572541;246;24100;-80
2021/12/30 09:46:56;;;;;;;34.10;18.37;;;3.30;99.90;1.80;99537;;;;572465;246;24076;-79
2021/12/30 09:49:24;;;;;;;26.93;14.70;;;3.30;99.90;1.90;99531;;;;581294;246;24113;-81
2021/12/30 09:51:51;;;;;;;62.83;28.90;;;3.40;99.90;1.90;99522;;;;572521;246;24144;-80
2021/12/30 09:54:20;;;;;;;41.73;19.30;;;3.50;99.90;1.90;99537;;;;581260;246;24090;-80
2021/12/30 09:56:47;;;;;;;43.47;18.23;;;3.50;99.90;2.00;99534;;;;572479;246;24076;-79
2021/12/30 09:59:15;;;;;;;44.83;19.97;;;3.50;99.90;2.00;99536;;;;574007;246;24096;-81
2021/12/30 10:01:47;;;;;;;47.27;21.10;;;3.50;99.90;2.00;99524;;;;573463;246;24161;-81
2021/12/30 10:04:12;;;;;;;44.23;21.23;;;3.60;99.90;2.20;99520;;;;572718;246;24121;-81
2021/12/30 10:06:48;;;;;;;48.03;23.73;;;3.60;99.90;2.30;99518;;;;574520;242;24075;-75
2021/12/30 10:09:16;;;;;;;35.57;17.87;;;3.70;99.90;2.30;99518;;;;583925;243;24071;-75
2021/12/30 10:11:53;;;;;;;37.73;17.43;;;3.80;99.90;2.40;99517;;;;582901;243;24099;-74
2021/12/30 10:14:30;;;;;;;39.57;19.47;;;3.90;99.90;2.30;99507;;;;580591;243;24121;-80
2021/12/30 10:17:13;;;;;;;45.73;21.97;;;3.90;99.90;2.40;99514;;;;580535;243;24060;-81
2021/12/30 10:19:41;;;;;;;47.93;19.03;;;3.90;99.90;2.40;99511;;;;580212;243;24114;-73
2021/12/30 10:22:15;;;;;;;39.40;19.03;;;4.10;99.90;2.60;99518;;;;580397;243;24067;-73
2021/12/30 10:24:44;;;;;;;40.07;17.70;;;4.10;99.90;2.70;99530;;;;580315;243;24076;-73
2021/12/30 10:27:26;;;;;;;47.93;19.70;;;4.10;99.90;2.70;99527;;;;580372;243;24097;-76
2021/12/30 10:29:58;;;;;;;44.53;20.97;;;4.20;99.90;2.70;99525;;;;580276;243;24075;-75
2021/12/30 10:32:25;;;;;;;38.13;19.37;;;4.30;99.90;2.80;99520;;;;580557;243;24112;-73
2021/12/30 10:35:12;;;;;;;41.27;18.17;;;4.30;99.90;2.90;99528;;;;580291;243;24118;-75
2021/12/30 10:37:46;;;;;;;39.97;18.67;;;4.40;99.90;3.00;99518;;;;580349;243;24090;-75
2021/12/30 10:40:28;;;;;;;41.03;20.10;;;4.50;99.90;3.00;99512;;;;580232;243;24101;-78
2021/12/30 10:43:27;;;;;;;34.43;16.53;;;4.50;99.90;3.00;99513;;;;589419;243;24066;-80
2021/12/30 10:46:22;;;;;;;35.67;16.67;;;4.50;99.90;3.00;99497;;;;580323;243;24066;-79
2021/12/30 10:49:03;;;;;;;41.00;21.23;;;4.50;99.90;3.00;99496;;;;580359;243;24099;-76
2021/12/30 10:51:42;;;;;;;31.70;15.27;;;4.50;99.90;3.10;99486;;;;582929;243;24070;-76
2021/12/30 10:54:28;;;;;;;37.67;17.17;;;4.60;99.90;3.20;99486;;;;579886;243;24157;-76
2021/12/30 10:56:56;;;;;;;30.40;15.67;;;4.60;99.90;3.20;99470;;;;580267;243;24152;-75
2021/12/30 10:59:23;;;;;;;33.67;17.93;;;4.70;99.90;3.20;99479;;;;579710;243;24085;-75
2021/12/30 11:01:57;;;;;;;41.50;19.07;;;4.60;99.90;3.10;99485;;;;580177;243;25170;-75
2021/12/30 11:04:34;;;;;;;32.67;16.13;;;4.60;99.90;3.10;99477;;;;579630;243;24115;-75
2021/12/30 11:07:05;;;;;;;32.63;18.00;;;4.60;99.90;3.00;99490;;;;580571;243;24157;-75
2021/12/30 11:09:30;;;;;;;32.50;15.43;;;4.50;99.90;3.00;99486;;;;580608;243;24085;-75
2021/12/30 11:12:01;;;;;;;29.23;14.90;;;4.50;99.90;3.10;99496;;;;580908;243;24106;-76
2021/12/30 11:14:31;;;;;;;39.33;18.10;;;4.50;99.90;3.20;99502;;;;580794;243;24102;-76
2021/12/30 11:17:14;;;;;;;35.43;17.00;;;4.50;99.90;3.10;99490;;;;580676;243;24096;-77
2021/12/30 11:19:40;;;;;;;34.47;18.37;;;4.50;99.90;3.20;99485;;;;580349;243;24079;-76
2021/12/30 11:22:07;;;;;;;35.63;18.37;;;4.60;99.90;3.30;99483;;;;580251;243;24090;-76
2021/12/30 11:24:35;;;;;;;40.73;19.40;;;4.70;99.90;3.40;99467;;;;580466;243;25154;-78